createdAt,value
2022-08-11T00:01:54.460Z,98999.28
2022-08-11T00:05:01.551Z,98999.17
2022-08-11T00:08:05.164Z,98998.36
2022-08-11T00:11:10.787Z,98996.08
2022-08-11T00:14:22.648Z,98995.23
2022-08-11T00:17:32.917Z,98993.17
2022-08-11T00:20:41.889Z,98990.73
2022-08-11T00:23:47.414Z,98989.03
2022-08-11T00:26:54.908Z,98986.84
2022-08-11T00:29:58.349Z,98986.86
2022-08-11T00:33:01.430Z,98989.14
2022-08-11T00:36:06.191Z,98984.17
2022-08-11T00:39:10.726Z,98977.79
2022-08-11T00:42:40.650Z,98976.46
2022-08-11T00:45:54.044Z,98976.42
2022-08-11T00:49:25.548Z,98978.48
2022-08-11T00:52:49.702Z,98978.52
2022-08-11T00:55:56.172Z,98982.02
2022-08-11T00:59:35.249Z,98984.35
2022-08-11T01:03:28.494Z,98983.66
2022-08-11T01:06:49.631Z,98980.91
2022-08-11T01:10:06.964Z,98977.67
2022-08-11T01:13:19.375Z,98974.71
2022-08-11T01:16:50.151Z,98979.04
2022-08-11T01:20:47.328Z,98975.29
2022-08-11T01:24:11.027Z,98975.36
2022-08-11T01:27:32.532Z,98973.29
2022-08-11T01:30:44.056Z,98977.85
2022-08-11T01:34:04.852Z,98972.73
2022-08-11T01:37:44.920Z,98972.83
2022-08-11T01:41:12.760Z,98967.92
2022-08-11T01:44:44.806Z,98965.72
2022-08-11T01:48:02.585Z,98966.07
2022-08-11T01:51:30.298Z,98966.59
2022-08-11T01:54:49.030Z,98966.03
2022-08-11T01:58:13.432Z,98962.55
2022-08-11T02:01:41.044Z,98963.91
2022-08-11T02:05:11.978Z,98962.56
2022-08-11T02:08:44.775Z,98960.11
2022-08-11T02:11:58.485Z,98956.88
2022-08-11T02:15:26.424Z,98953.23
2022-08-11T02:18:54.911Z,98952.05
2022-08-11T02:22:24.534Z,98950.96
2022-08-11T02:25:41.514Z,98950.85
2022-08-11T02:28:55.837Z,98946.05
2022-08-11T02:32:38.252Z,98948.55
2022-08-11T02:36:06.509Z,98949.38
2022-08-11T02:39:19.065Z,98956.31
2022-08-11T02:42:36.164Z,98959.62
2022-08-11T02:46:18.629Z,98957.61
2022-08-11T02:50:02.540Z,98955.92
2022-08-11T02:53:19.821Z,98956.25
2022-08-11T02:56:44.787Z,98960.49
2022-08-11T02:59:51.054Z,98960.64
2022-08-11T03:03:12.033Z,98963.13
2022-08-11T03:06:30.178Z,98963.88
2022-08-11T03:09:36.132Z,98960.17
2022-08-11T03:13:25.615Z,98962.02
2022-08-11T03:16:46.670Z,98962.16
2022-08-11T03:20:03.398Z,98964.96
2022-08-11T03:23:23.893Z,98966.84
2022-08-11T03:26:44.408Z,98962.84
2022-08-11T03:30:06.448Z,98971.34
2022-08-11T03:33:43.716Z,98970.82
2022-08-11T03:37:16.029Z,98972.98
2022-08-11T03:42:03.452Z,98970.45
2022-08-11T03:44:56.706Z,98974.76
2022-08-11T03:48:21.294Z,98975.65
2022-08-11T03:51:44.942Z,98969.13
2022-08-11T03:55:21.184Z,98972.33
2022-08-11T03:58:59.181Z,98971.59
2022-08-11T04:02:17.206Z,98972.14
2022-08-11T04:05:35.186Z,98971.17
2022-08-11T04:09:10.051Z,98961.41
2022-08-11T04:12:36.462Z,98958.24
2022-08-11T04:16:11.788Z,98960.91
2022-08-11T04:19:46.047Z,98955.59
2022-08-11T04:23:03.654Z,98957.09
2022-08-11T04:26:37.558Z,98955.09
2022-08-11T04:30:05.595Z,98952.94
2022-08-11T04:33:36.587Z,98952.67
2022-08-11T04:37:32.250Z,98955.57
2022-08-11T04:40:55.084Z,98957.36
2022-08-11T04:44:32.843Z,98961.38
2022-08-11T04:48:04.155Z,98958.65
2022-08-11T04:51:31.800Z,98956.64
2022-08-11T04:55:21.233Z,98960.71
2022-08-11T04:58:48.636Z,98964.77
2022-08-11T05:01:54.277Z,98969.05
2022-08-11T05:05:24.917Z,98968.18
2022-08-11T05:09:01.556Z,98971.48
2022-08-11T05:12:36.863Z,98968.10
2022-08-11T05:16:21.886Z,98969.85
2022-08-11T05:19:43.460Z,98970.40
2022-08-11T05:23:09.998Z,98972.06
2022-08-11T05:26:47.145Z,98969.90
2022-08-11T05:30:19.361Z,98972.23
2022-08-11T05:33:49.845Z,98972.39
2022-08-11T05:37:26.277Z,98975.54
2022-08-11T05:40:51.303Z,98972.55
2022-08-11T05:44:20.653Z,98971.59
2022-08-11T05:47:45.030Z,98971.29
2022-08-11T05:51:16.509Z,98970.75
2022-08-11T05:54:38.885Z,98968.74
2022-08-11T05:57:51.245Z,98976.80
2022-08-11T06:00:55.126Z,98978.02
2022-08-11T06:04:15.753Z,98980.84
2022-08-11T06:07:26.998Z,98983.08
2022-08-11T06:10:35.971Z,98984.21
2022-08-11T06:13:45.307Z,98983.60
2022-08-11T06:16:50.068Z,98982.92
2022-08-11T06:20:07.096Z,98991.36
2022-08-11T06:23:11.290Z,98992.06
2022-08-11T06:26:15.574Z,98990.17
2022-08-11T06:29:20.429Z,98988.70
2022-08-11T06:32:45.733Z,98989.94
2022-08-11T06:36:00.345Z,98990.15
2022-08-11T06:39:16.439Z,98989.80
2022-08-11T06:42:37.367Z,98986.45
2022-08-11T06:46:04.543Z,98989.00
2022-08-11T06:49:30.612Z,98994.19
2022-08-11T06:52:38.479Z,98991.06
2022-08-11T06:56:04.244Z,98986.98
2022-08-11T06:59:28.374Z,98983.67
2022-08-11T07:02:37.105Z,98984.42
2022-08-11T07:05:46.066Z,98983.05
2022-08-11T07:09:33.283Z,98975.30
2022-08-11T07:13:01.432Z,98973.94
2022-08-11T07:16:11.034Z,98968.77
2022-08-11T07:19:42.393Z,98968.48
2022-08-11T07:23:14.618Z,98964.95
2022-08-11T07:26:39.645Z,98965.64
2022-08-11T07:29:46.041Z,98965.06
2022-08-11T07:32:55.650Z,98970.16
2022-08-11T07:36:02.087Z,98969.89
2022-08-11T07:39:15.366Z,98973.67
2022-08-11T07:42:23.328Z,98974.06
2022-08-11T07:45:46.080Z,98970.00
2022-08-11T07:49:08.700Z,98971.44
2022-08-11T07:52:30.809Z,98975.50
2022-08-11T07:55:50.213Z,98975.53
2022-08-11T07:59:15.477Z,98977.60
2022-08-11T08:02:38.803Z,98978.31
2022-08-11T08:06:01.439Z,98976.54
2022-08-11T08:09:25.070Z,98980.64
2022-08-11T08:12:48.119Z,98980.88
2022-08-11T08:16:11.702Z,98982.98
2022-08-11T08:19:17.387Z,98978.36
2022-08-11T08:22:38.367Z,98972.34
2022-08-11T08:25:45.631Z,98969.20
2022-08-11T08:28:48.806Z,98971.51
2022-08-11T08:31:54.863Z,98969.42
2022-08-11T08:34:59.816Z,98965.95
2022-08-11T08:38:03.908Z,98965.66
2022-08-11T08:41:08.048Z,98962.53
2022-08-11T08:44:37.194Z,98963.54
2022-08-11T08:47:52.960Z,98964.30
2022-08-11T08:51:29.222Z,98963.36
2022-08-11T08:54:56.463Z,98965.23
2022-08-11T08:58:01.107Z,98963.33
2022-08-11T09:01:05.653Z,98961.09
2022-08-11T09:04:11.838Z,98963.38
2022-08-11T09:07:18.436Z,98962.24
2022-08-11T09:10:21.717Z,98962.55
2022-08-11T09:13:24.913Z,98959.08
2022-08-11T09:16:28.131Z,98959.47
2022-08-11T09:19:32.144Z,98958.20
2022-08-11T09:23:24.330Z,98962.39
2022-08-11T09:26:38.536Z,98955.65
2022-08-11T09:29:41.346Z,98956.05
2022-08-11T09:32:44.657Z,98952.55
2022-08-11T09:35:51.386Z,98949.13
2022-08-11T09:39:13.199Z,98948.55
2022-08-11T09:42:23.407Z,98945.48
2022-08-11T09:45:28.484Z,98939.14
2022-08-11T09:48:46.236Z,98933.33
2022-08-11T09:52:02.271Z,98936.48
2022-08-11T09:55:12.344Z,98939.56
2022-08-11T09:58:41.756Z,98937.77
2022-08-11T10:01:49.296Z,98937.96
2022-08-11T10:04:54.387Z,98934.42
2022-08-11T10:07:58.637Z,98931.94
2022-08-11T10:11:06.850Z,98933.09
2022-08-11T10:14:33.406Z,98930.29
2022-08-11T10:18:03.047Z,98926.14
2022-08-11T10:21:14.678Z,98924.82
2022-08-11T10:24:36.874Z,98914.77
2022-08-11T10:28:32.810Z,98909.05
2022-08-11T10:31:30.510Z,98899.70
2022-08-11T10:34:54.495Z,98902.86
2022-08-11T10:38:07.575Z,98898.19
2022-08-11T10:41:32.764Z,98894.66
2022-08-11T10:44:47.821Z,98890.73
2022-08-11T10:47:54.519Z,98885.20
2022-08-11T10:51:14.168Z,98878.23
2022-08-11T10:54:36.331Z,98892.01
2022-08-11T10:58:04.299Z,98889.09
2022-08-11T11:01:09.829Z,98891.83
2022-08-11T11:04:12.775Z,98894.83
2022-08-11T11:07:24.983Z,98897.20
2022-08-11T11:10:28.230Z,98888.02
2022-08-11T11:13:55.231Z,98875.36
2022-08-11T11:17:14.155Z,98870.73
2022-08-11T11:20:36.382Z,98864.91
2022-08-11T11:24:00.163Z,98847.52
2022-08-11T11:27:22.241Z,98840.33
2022-08-11T11:30:33.170Z,98840.34
2022-08-11T11:34:12.038Z,98845.61
2022-08-11T11:37:19.247Z,98843.52
2022-08-11T11:40:28.748Z,98843.47
2022-08-11T11:43:37.149Z,98840.70
2022-08-11T11:46:41.499Z,98835.54
2022-08-11T11:49:46.163Z,98826.29
2022-08-11T11:52:50.160Z,98812.89
2022-08-11T11:55:53.616Z,98814.96
2022-08-11T11:59:16.112Z,98819.14
2022-08-11T12:02:19.666Z,98813.62
2022-08-11T12:05:22.850Z,98816.80
2022-08-11T12:08:27.889Z,98804.10
2022-08-11T12:11:50.574Z,98796.42
2022-08-11T12:14:54.831Z,98792.78
2022-08-11T12:17:59.510Z,98800.02
2022-08-11T12:21:04.110Z,98799.56
2022-08-11T12:24:29.156Z,98799.11
2022-08-11T12:27:32.922Z,98795.09
2022-08-11T12:30:36.752Z,98790.61
2022-08-11T12:33:44.616Z,98784.85
2022-08-11T12:36:57.782Z,98787.05
2022-08-11T12:40:49.553Z,98789.29
2022-08-11T12:44:06.791Z,98779.71
2022-08-11T12:47:11.190Z,98773.63
2022-08-11T12:50:40.809Z,98770.34
2022-08-11T12:53:53.193Z,98766.33
2022-08-11T12:57:36.204Z,98760.45
2022-08-11T13:00:59.182Z,98752.20
2022-08-11T13:04:21.551Z,98754.58
2022-08-11T13:07:27.168Z,98748.99
2022-08-11T13:11:09.176Z,98745.83
2022-08-11T13:14:15.343Z,98738.77
2022-08-11T13:17:21.939Z,98742.92
2022-08-11T13:20:48.498Z,98741.43
2022-08-11T13:23:59.536Z,98737.38
2022-08-11T13:27:08.107Z,98738.28
2022-08-11T13:30:31.819Z,98732.27
2022-08-11T13:33:42.214Z,98726.99
2022-08-11T13:36:46.023Z,98723.98
2022-08-11T13:39:49.307Z,98722.86
2022-08-11T13:42:53.579Z,98719.02
2022-08-11T13:46:16.952Z,98710.51
2022-08-11T13:49:21.317Z,98717.78
2022-08-11T13:58:08.910Z,98705.92
2022-08-11T14:02:47.917Z,98709.98
2022-08-11T14:05:53.916Z,98714.39
2022-08-11T14:08:58.056Z,98718.96
2022-08-11T14:12:25.872Z,98727.89
2022-08-11T14:15:34.105Z,98773.59
2022-08-11T14:18:43.152Z,98794.20
2022-08-11T14:22:07.815Z,98802.44
2022-08-11T14:25:13.073Z,98828.61
2022-08-11T14:28:32.981Z,98855.04
2022-08-11T14:31:40.689Z,98856.63
2022-08-11T14:34:45.180Z,98842.98
2022-08-11T14:37:48.568Z,98847.36
2022-08-11T14:41:11.337Z,98858.50
2022-08-11T14:44:33.514Z,98876.66
2022-08-11T14:47:39.390Z,98883.77
2022-08-11T14:50:42.668Z,98865.38
2022-08-11T14:53:58.359Z,98861.49
2022-08-11T14:57:03.332Z,98859.89
2022-08-11T15:00:15.474Z,98862.03
2022-08-11T15:03:19.493Z,98857.06
2022-08-11T15:06:22.769Z,98852.61
2022-08-11T15:09:25.926Z,98848.39
2022-08-11T15:12:33.192Z,98844.05
2022-08-11T15:15:56.017Z,98835.49
2022-08-11T15:18:59.900Z,98823.54
2022-08-11T15:22:26.069Z,98816.30
2022-08-11T15:25:34.605Z,98811.94
2022-08-11T15:29:02.856Z,98813.64
2022-08-11T15:32:20.457Z,98818.83
2022-08-11T15:35:42.478Z,98820.19
2022-08-11T15:38:58.086Z,98816.00
2022-08-11T15:42:33.555Z,98818.65
2022-08-11T15:45:52.029Z,98821.25
2022-08-11T15:49:07.452Z,98826.13
2022-08-11T15:52:16.181Z,98825.71
2022-08-11T15:55:21.437Z,98822.81
2022-08-11T15:58:47.875Z,98818.98
2022-08-11T16:02:35.888Z,98822.98
2022-08-11T16:05:46.721Z,98819.65
2022-08-11T16:08:59.643Z,98825.73
2022-08-11T16:12:05.173Z,98825.40
2022-08-11T16:15:29.505Z,98823.42
2022-08-11T16:18:41.998Z,98819.59
2022-08-11T16:21:46.132Z,98814.37
2022-08-11T16:27:03.581Z,98813.23
2022-08-11T16:28:17.005Z,98806.26
2022-08-11T16:31:22.158Z,98806.00
2022-08-11T16:34:44.463Z,98809.56
2022-08-11T16:38:06.366Z,98811.90
2022-08-11T16:41:16.085Z,98811.36
2022-08-11T16:44:39.020Z,98812.17
2022-08-11T16:48:03.554Z,98809.56
2022-08-11T16:51:10.582Z,98801.38
2022-08-11T16:54:14.076Z,98794.23
2022-08-11T16:57:44.191Z,98786.60
2022-08-11T17:00:49.925Z,98778.02
2022-08-11T17:04:31.203Z,98775.64
2022-08-11T17:07:57.195Z,98776.11
2022-08-11T17:11:24.466Z,98779.15
2022-08-11T17:14:39.890Z,98776.60
2022-08-11T17:17:43.309Z,98775.02
2022-08-11T17:20:46.602Z,98778.48
2022-08-11T17:23:55.176Z,98774.52
2022-08-11T17:27:00.935Z,98771.48
2022-08-11T17:30:09.606Z,98770.88
2022-08-11T17:33:32.551Z,98774.18
2022-08-11T17:36:41.526Z,98768.50
2022-08-11T17:39:49.481Z,98770.41
2022-08-11T17:43:12.915Z,98772.22
2022-08-11T17:46:36.995Z,98769.96
2022-08-11T17:49:41.011Z,98768.50
2022-08-11T17:53:04.592Z,98768.38
2022-08-11T17:56:27.799Z,98770.69
2022-08-11T17:59:51.844Z,98769.86
2022-08-11T18:03:14.840Z,98771.14
2022-08-11T18:06:19.422Z,98776.70
2022-08-11T18:09:42.942Z,98774.55
2022-08-11T18:13:07.170Z,98770.83
2022-08-11T18:16:28.986Z,98768.38
2022-08-11T18:19:50.465Z,98771.94
2022-08-11T18:23:15.188Z,98776.88
2022-08-11T18:26:42.373Z,98782.14
2022-08-11T18:30:07.607Z,98784.23
2022-08-11T18:33:56.695Z,98784.06
2022-08-11T18:37:29.579Z,98781.34
2022-08-11T18:40:54.287Z,98779.26
2022-08-11T18:44:20.943Z,98784.73
2022-08-11T18:47:45.097Z,98794.16
2022-08-11T18:51:31.247Z,98795.74
2022-08-11T18:54:59.962Z,98794.32
2022-08-11T18:58:26.201Z,98799.60
2022-08-11T19:01:50.393Z,98799.81
2022-08-11T19:05:14.180Z,98804.02
2022-08-11T19:08:38.355Z,98804.73
2022-08-11T19:12:00.436Z,98807.41
2022-08-11T19:15:24.716Z,98807.69
2022-08-11T19:18:48.326Z,98812.66
2022-08-11T19:22:10.935Z,98814.84
2022-08-11T19:25:34.582Z,98817.06
2022-08-11T19:29:00.828Z,98813.22
2022-08-11T19:32:23.638Z,98808.17
2022-08-11T19:35:46.444Z,98798.30
2022-08-11T19:39:10.244Z,98793.34
2022-08-11T19:42:34.570Z,98791.92
2022-08-11T19:45:58.591Z,98799.29
2022-08-11T19:49:21.648Z,98800.67
2022-08-11T19:52:45.095Z,98807.30
2022-08-11T19:56:16.099Z,98801.98
2022-08-11T19:59:54.055Z,98803.66
2022-08-11T20:03:22.261Z,98797.34
2022-08-11T20:11:38.681Z,98789.04
2022-08-11T20:15:02.843Z,98786.34
2022-08-11T20:18:29.046Z,98787.38
2022-08-11T20:21:53.576Z,98792.72
2022-08-11T20:25:18.361Z,98788.83
2022-08-11T20:28:40.058Z,98782.55
2022-08-11T20:32:04.215Z,98786.06
2022-08-11T20:35:28.582Z,98783.70
2022-08-11T20:38:53.451Z,98776.34
2022-08-11T20:42:17.181Z,98775.66
2022-08-11T20:45:55.180Z,98778.09
2022-08-11T20:49:21.262Z,98775.12
2022-08-11T20:52:48.002Z,98769.89
2022-08-11T20:56:10.665Z,98774.45
2022-08-11T20:59:49.370Z,98773.49
2022-08-11T21:03:16.077Z,98780.35
2022-08-11T21:07:00.083Z,98775.30
2022-08-11T21:10:27.758Z,98776.23
2022-08-11T21:13:56.083Z,98781.11
2022-08-11T21:17:27.078Z,98786.95
2022-08-11T21:20:51.304Z,98791.60
2022-08-11T21:24:16.219Z,98789.61
2022-08-11T21:27:39.913Z,98789.22
2022-08-11T21:31:02.798Z,98793.44
2022-08-11T21:34:26.507Z,98790.25
2022-08-11T21:37:50.309Z,98788.80
2022-08-11T21:41:13.884Z,98792.91
2022-08-11T21:44:36.864Z,98793.27
2022-08-11T21:48:01.100Z,98795.03
2022-08-11T21:51:23.468Z,98798.36
2022-08-11T21:54:45.922Z,98793.75
2022-08-11T21:58:07.952Z,98796.95
2022-08-11T22:01:30.875Z,98800.63
2022-08-11T22:04:56.362Z,98798.17
2022-08-11T22:08:17.908Z,98800.86
2022-08-11T22:11:39.497Z,98799.91
2022-08-11T22:15:01.234Z,98800.23
2022-08-11T22:18:23.237Z,98798.23
2022-08-11T22:22:03.315Z,98800.92
2022-08-11T22:25:27.375Z,98802.03
2022-08-11T22:29:00.164Z,98802.57
2022-08-11T22:32:21.489Z,98804.15
2022-08-11T22:35:43.324Z,98809.19
2022-08-11T22:39:06.975Z,98806.89
2022-08-11T22:42:33.498Z,98807.15
2022-08-11T22:45:55.395Z,98805.91
2022-08-11T22:49:17.841Z,98805.71
2022-08-11T22:52:40.483Z,98807.34
2022-08-11T22:56:01.984Z,98807.08
2022-08-11T22:59:26.275Z,98811.45
2022-08-11T23:02:48.004Z,98804.83
2022-08-11T23:06:10.064Z,98800.88
2022-08-11T23:09:32.061Z,98796.44
2022-08-11T23:12:54.965Z,98786.29
2022-08-11T23:16:17.458Z,98786.63
2022-08-11T23:20:01.719Z,98780.22
2022-08-11T23:23:21.267Z,98774.52
2022-08-11T23:26:47.180Z,98772.42
2022-08-11T23:30:12.348Z,98774.85
2022-08-11T23:33:36.218Z,98772.68
2022-08-11T23:36:58.118Z,98773.59
2022-08-11T23:40:20.147Z,98773.40
2022-08-11T23:43:44.573Z,98772.73
2022-08-11T23:47:08.444Z,98773.23
2022-08-11T23:50:30.573Z,98775.51
2022-08-11T23:53:52.492Z,98774.79
2022-08-11T23:57:14.482Z,98775.73
